createdAt,value
2019-04-03T00:02:17.112Z,9.58
2019-04-03T00:04:46.036Z,9.57
2019-04-03T00:07:14.920Z,9.54
2019-04-03T00:09:43.827Z,9.52
2019-04-03T00:12:12.822Z,9.46
2019-04-03T00:14:43.143Z,9.34
2019-04-03T00:17:10.654Z,9.36
2019-04-03T00:19:39.487Z,9.43
2019-04-03T00:22:08.433Z,9.43
2019-04-03T00:24:37.352Z,9.35
2019-04-03T00:27:06.269Z,9.32
2019-04-03T00:29:35.235Z,9.36
2019-04-03T00:32:04.147Z,9.16
2019-04-03T00:34:33.140Z,9.62
2019-04-03T00:37:01.971Z,9.58
2019-04-03T00:39:30.914Z,9.21
2019-04-03T00:41:59.971Z,9.36
2019-04-03T00:44:28.854Z,9.33
2019-04-03T00:46:57.764Z,9.10
2019-04-03T00:49:26.666Z,8.99
2019-04-03T00:51:57.134Z,9.07
2019-04-03T00:54:26.053Z,8.88
2019-04-03T00:56:54.696Z,8.99
2019-04-03T00:59:22.322Z,8.95
2019-04-03T01:01:51.261Z,8.93
2019-04-03T01:04:20.199Z,8.81
2019-04-03T01:06:49.193Z,8.85
2019-04-03T01:09:18.173Z,8.81
2019-04-03T01:11:46.945Z,8.79
2019-04-03T01:14:15.859Z,8.79
2019-04-03T01:16:44.780Z,8.70
2019-04-03T01:19:13.758Z,8.78
2019-04-03T01:21:42.571Z,8.74
2019-04-03T01:24:11.505Z,8.66
2019-04-03T01:26:41.197Z,9.03
2019-04-03T01:29:10.633Z,8.77
2019-04-03T01:31:38.267Z,8.77
2019-04-03T01:34:07.241Z,9.18
2019-04-03T01:36:36.212Z,8.87
2019-04-03T01:39:06.467Z,8.90
2019-04-03T01:41:35.388Z,8.82
2019-04-03T01:44:04.300Z,8.86
2019-04-03T01:46:33.301Z,8.73
2019-04-03T01:49:02.373Z,8.73
2019-04-03T01:51:31.006Z,8.76
2019-04-03T01:54:02.319Z,8.66
2019-04-03T01:56:28.814Z,8.97
2019-04-03T01:58:57.774Z,8.75
2019-04-03T02:01:26.604Z,8.68
2019-04-03T02:03:55.537Z,8.53
2019-04-03T02:06:24.397Z,8.56
2019-04-03T02:08:53.456Z,8.47
2019-04-03T02:11:22.218Z,8.51
2019-04-03T02:13:51.683Z,8.52
2019-04-03T02:16:20.061Z,8.49
2019-04-03T02:18:48.998Z,8.47
2019-04-03T02:21:17.933Z,8.43
2019-04-03T02:23:46.837Z,8.78
2019-04-03T02:26:15.720Z,8.42
2019-04-03T02:28:44.638Z,8.40
2019-04-03T02:31:18.200Z,8.38
2019-04-03T02:33:42.656Z,8.27
2019-04-03T02:36:12.566Z,8.20
2019-04-03T02:38:40.224Z,8.30
2019-04-03T02:41:09.134Z,8.26
2019-04-03T02:43:38.041Z,8.10
2019-04-03T02:46:07.007Z,8.53
2019-04-03T02:48:38.295Z,8.36
2019-04-03T02:51:05.141Z,8.71
2019-04-03T02:53:33.739Z,8.21
2019-04-03T02:56:02.679Z,8.31
2019-04-03T02:58:31.623Z,8.22
2019-04-03T03:01:00.520Z,8.18
2019-04-03T03:03:29.430Z,8.54
2019-04-03T03:06:00.704Z,8.22
2019-04-03T03:08:27.233Z,8.15
2019-04-03T03:10:56.772Z,8.11
2019-04-03T03:13:25.809Z,8.10
2019-04-03T03:15:54.609Z,8.00
2019-04-03T03:18:24.648Z,8.06
2019-04-03T03:20:52.391Z,7.97
2019-04-03T03:23:23.359Z,7.93
2019-04-03T03:25:50.213Z,7.83
2019-04-03T03:28:19.425Z,7.79
2019-04-03T03:30:57.836Z,7.72
2019-04-03T03:33:34.748Z,7.68
2019-04-03T03:35:48.935Z,7.69
2019-04-03T03:38:16.211Z,7.61
2019-04-03T03:40:48.342Z,7.65
2019-04-03T03:43:14.422Z,7.67
2019-04-03T03:45:43.251Z,7.65
2019-04-03T03:48:12.197Z,7.61
2019-04-03T03:50:41.330Z,7.68
2019-04-03T03:53:11.982Z,7.66
2019-04-03T03:55:38.854Z,7.60
2019-04-03T03:58:11.020Z,7.56
2019-04-03T04:00:36.702Z,7.59
2019-04-03T04:03:09.095Z,7.60
2019-04-03T04:05:34.851Z,7.98
2019-04-03T04:08:04.392Z,7.66
2019-04-03T04:10:35.887Z,7.61
2019-04-03T04:13:02.241Z,7.59
2019-04-03T04:15:31.806Z,7.57
2019-04-03T04:18:00.397Z,7.52
2019-04-03T04:20:29.015Z,7.56
2019-04-03T04:22:57.909Z,7.57
2019-04-03T04:25:28.297Z,7.69
2019-04-03T04:27:55.775Z,7.71
2019-04-03T04:30:24.666Z,7.70
2019-04-03T04:32:53.652Z,7.77
2019-04-03T04:35:22.465Z,7.80
2019-04-03T04:37:51.368Z,7.85
2019-04-03T04:40:20.260Z,7.89
2019-04-03T04:42:49.169Z,7.82
2019-04-03T04:45:18.058Z,7.84
2019-04-03T04:47:46.955Z,7.87
2019-04-03T04:50:24.165Z,7.90
2019-04-03T04:52:50.695Z,8.32
2019-04-03T04:55:19.803Z,8.06
2019-04-03T04:57:48.758Z,7.91
2019-04-03T05:00:17.656Z,7.95
2019-04-03T05:02:46.587Z,8.35
2019-04-03T05:05:15.510Z,8.46
2019-04-03T05:07:44.404Z,8.19
2019-04-03T05:10:13.308Z,8.13
2019-04-03T05:12:44.729Z,8.14
2019-04-03T05:15:11.116Z,8.10
2019-04-03T05:17:40.031Z,8.07
2019-04-03T05:20:08.939Z,8.09
2019-04-03T05:22:37.839Z,8.10
2019-04-03T05:25:07.221Z,8.10
2019-04-03T05:27:35.985Z,8.07
2019-04-03T05:30:06.028Z,8.10
2019-04-03T05:32:34.153Z,8.10
2019-04-03T05:35:03.055Z,8.13
2019-04-03T05:37:31.985Z,8.13
2019-04-03T05:40:00.888Z,8.16
2019-04-03T05:42:29.784Z,8.14
2019-04-03T05:44:58.680Z,8.12
2019-04-03T05:47:27.581Z,8.09
2019-04-03T05:49:56.564Z,8.14
2019-04-03T05:52:25.402Z,8.18
2019-04-03T05:54:54.399Z,8.18
2019-04-03T05:57:23.285Z,8.23
2019-04-03T06:00:00.064Z,8.27
2019-04-03T06:02:22.188Z,8.67
2019-04-03T06:04:50.129Z,8.48
2019-04-03T06:07:19.011Z,8.40
2019-04-03T06:09:47.863Z,8.41
2019-04-03T06:12:18.654Z,8.51
2019-04-03T06:14:45.662Z,8.54
2019-04-03T06:17:14.673Z,8.53
2019-04-03T06:19:43.602Z,8.48
2019-04-03T06:22:12.503Z,8.54
2019-04-03T06:24:41.408Z,8.57
2019-04-03T06:27:10.593Z,8.63
2019-04-03T06:29:39.288Z,8.72
2019-04-03T06:32:08.227Z,8.83
2019-04-03T06:34:38.870Z,8.84
2019-04-03T06:37:06.311Z,8.85
2019-04-03T06:39:35.213Z,8.88
2019-04-03T06:42:04.361Z,8.91
2019-04-03T06:44:33.101Z,8.93
2019-04-03T06:47:02.078Z,8.93
2019-04-03T06:49:31.096Z,8.94
2019-04-03T06:51:59.773Z,8.92
2019-04-03T06:54:31.032Z,9.00
2019-04-03T06:56:57.629Z,8.95
2019-04-03T06:59:26.518Z,9.11
2019-04-03T07:01:55.414Z,9.13
2019-04-03T07:04:24.332Z,9.33
2019-04-03T07:06:55.758Z,9.41
2019-04-03T07:09:32.316Z,9.61
2019-04-03T07:11:51.184Z,9.75
2019-04-03T07:14:20.113Z,9.76
2019-04-03T07:16:49.041Z,9.85
2019-04-03T07:19:17.953Z,9.84
2019-04-03T07:21:46.842Z,9.95
2019-04-03T07:24:15.777Z,10.00
2019-04-03T07:26:44.968Z,10.12
2019-04-03T07:29:15.818Z,10.23
2019-04-03T07:31:42.733Z,10.40
2019-04-03T07:34:11.405Z,10.49
2019-04-03T07:36:41.382Z,10.53
2019-04-03T07:39:11.001Z,10.64
2019-04-03T07:41:41.199Z,10.75
2019-04-03T07:44:07.465Z,11.11
2019-04-03T07:46:36.356Z,10.97
2019-04-03T07:49:06.811Z,10.96
2019-04-03T07:51:34.381Z,10.95
2019-04-03T07:54:04.744Z,10.86
2019-04-03T07:56:32.300Z,10.72
2019-04-03T07:59:03.305Z,10.75
2019-04-03T08:01:29.906Z,10.58
2019-04-03T08:03:58.805Z,10.64
2019-04-03T08:06:27.919Z,10.68
2019-04-03T08:09:07.214Z,10.81
2019-04-03T08:11:25.733Z,11.01
2019-04-03T08:13:54.561Z,10.94
2019-04-03T08:16:23.362Z,11.04
2019-04-03T08:18:52.498Z,11.14
2019-04-03T08:21:21.242Z,10.88
2019-04-03T08:23:50.086Z,10.69
2019-04-03T08:26:19.856Z,10.58
2019-04-03T08:28:47.935Z,10.59
2019-04-03T08:31:16.827Z,10.50
2019-04-03T08:33:45.734Z,10.33
2019-04-03T08:36:24.702Z,10.43
2019-04-03T08:38:44.947Z,10.47
2019-04-03T08:41:12.495Z,10.39
2019-04-03T08:43:41.452Z,10.11
2019-04-03T08:46:11.014Z,10.14
2019-04-03T08:48:39.485Z,10.17
2019-04-03T08:51:08.439Z,10.12
2019-04-03T08:53:39.332Z,10.25
2019-04-03T08:56:06.668Z,10.37
2019-04-03T08:58:35.282Z,10.59
2019-04-03T09:01:05.332Z,10.77
2019-04-03T09:03:33.287Z,11.04
2019-04-03T09:06:02.202Z,11.28
2019-04-03T09:08:31.114Z,12.04
2019-04-03T09:11:00.006Z,12.96
2019-04-03T09:13:28.910Z,13.71
2019-04-03T09:15:59.723Z,14.28
2019-04-03T09:18:29.758Z,14.53
2019-04-03T09:20:55.674Z,14.47
2019-04-03T09:23:25.096Z,14.18
2019-04-03T09:25:53.480Z,14.29
2019-04-03T09:28:22.799Z,14.39
2019-04-03T09:30:53.982Z,14.17
2019-04-03T09:33:20.164Z,14.71
2019-04-03T09:35:49.061Z,14.61
2019-04-03T09:38:17.992Z,15.28
2019-04-03T09:40:48.315Z,15.54
2019-04-03T09:43:15.772Z,15.26
2019-04-03T09:45:44.704Z,14.83
2019-04-03T09:48:13.602Z,14.36
2019-04-03T09:50:45.370Z,14.19
2019-04-03T09:53:11.556Z,14.08
2019-04-03T09:55:40.338Z,13.64
2019-04-03T09:58:09.415Z,13.63
2019-04-03T10:00:41.257Z,13.61
2019-04-03T10:03:07.365Z,13.85
2019-04-03T10:05:36.146Z,13.11
2019-04-03T10:08:07.709Z,13.20
2019-04-03T10:10:34.775Z,13.00
2019-04-03T10:13:03.422Z,13.06
2019-04-03T10:15:32.431Z,12.98
2019-04-03T10:18:01.170Z,13.05
2019-04-03T10:20:30.100Z,13.05
2019-04-03T10:22:58.996Z,13.22
2019-04-03T10:25:27.901Z,13.20
2019-04-03T10:27:56.866Z,13.19
2019-04-03T10:30:26.007Z,13.12
2019-04-03T10:32:54.760Z,13.05
2019-04-03T10:35:23.526Z,13.14
2019-04-03T10:37:52.458Z,13.10
2019-04-03T10:40:23.650Z,13.19
2019-04-03T10:42:50.529Z,13.12
2019-04-03T10:45:19.154Z,13.27
2019-04-03T10:47:48.062Z,13.28
2019-04-03T10:50:17.258Z,13.33
2019-04-03T10:52:48.197Z,13.59
2019-04-03T10:55:14.961Z,13.52
2019-04-03T10:57:43.911Z,12.89
2019-04-03T11:00:12.770Z,13.27
2019-04-03T11:02:42.027Z,13.21
2019-04-03T11:05:10.834Z,13.28
2019-04-03T11:07:39.536Z,13.75
2019-04-03T11:10:08.690Z,13.84
2019-04-03T11:12:37.994Z,13.87
2019-04-03T11:15:06.975Z,13.78
2019-04-03T11:17:35.793Z,13.59
2019-04-03T11:20:08.798Z,13.41
2019-04-03T11:22:40.431Z,13.43
2019-04-03T11:25:04.112Z,13.75
2019-04-03T11:27:42.535Z,13.44
2019-04-03T11:30:02.123Z,13.22
2019-04-03T11:32:30.780Z,13.23
2019-04-03T11:34:59.680Z,13.00
2019-04-03T11:37:32.133Z,13.01
2019-04-03T11:40:03.778Z,13.00
2019-04-03T11:42:29.301Z,13.08
2019-04-03T11:44:55.321Z,12.88
2019-04-03T11:47:24.187Z,12.79
2019-04-03T11:49:53.273Z,12.92
2019-04-03T11:52:21.985Z,13.12
2019-04-03T11:54:52.812Z,13.11
2019-04-03T11:57:19.829Z,13.04
2019-04-03T11:59:49.061Z,12.97
2019-04-03T12:02:17.617Z,12.89
2019-04-03T12:04:46.531Z,12.75
2019-04-03T12:07:15.435Z,12.69
2019-04-03T12:09:44.346Z,12.66
2019-04-03T12:12:13.259Z,12.85
2019-04-03T12:14:42.347Z,12.82
2019-04-03T12:17:11.181Z,12.76
2019-04-03T12:19:40.136Z,12.72
2019-04-03T12:22:09.118Z,12.62
2019-04-03T12:24:38.338Z,12.71
2019-04-03T12:27:07.004Z,12.91
2019-04-03T12:29:35.889Z,12.96
2019-04-03T12:32:07.933Z,13.00
2019-04-03T12:34:36.625Z,13.07
2019-04-03T12:37:02.662Z,12.86
2019-04-03T12:39:31.994Z,12.25
2019-04-03T12:42:00.532Z,12.62
2019-04-03T12:44:29.932Z,12.75
2019-04-03T12:46:58.335Z,12.78
2019-04-03T12:49:27.207Z,12.89
2019-04-03T12:51:56.154Z,12.97
2019-04-03T12:54:25.434Z,12.79
2019-04-03T12:56:54.054Z,12.70
2019-04-03T12:59:22.934Z,12.67
2019-04-03T13:01:51.821Z,12.61
2019-04-03T13:04:21.157Z,12.62
2019-04-03T13:06:50.022Z,12.60
2019-04-03T13:09:18.529Z,12.60
2019-04-03T13:11:49.920Z,12.45
2019-04-03T13:14:24.164Z,12.40
2019-04-03T13:16:47.128Z,12.43
2019-04-03T13:19:15.639Z,12.30
2019-04-03T13:21:43.146Z,12.48
2019-04-03T13:24:12.614Z,12.40
2019-04-03T13:26:40.911Z,12.47
2019-04-03T13:29:09.966Z,12.56
2019-04-03T13:31:38.858Z,12.54
2019-04-03T13:34:09.753Z,12.49
2019-04-03T13:36:36.689Z,12.46
2019-04-03T13:39:07.566Z,12.36
2019-04-03T13:41:36.404Z,12.35
2019-04-03T13:44:05.528Z,11.93
2019-04-03T13:46:36.402Z,11.76
2019-04-03T13:49:03.604Z,11.87
2019-04-03T13:51:32.241Z,11.97
2019-04-03T13:54:01.137Z,11.82
2019-04-03T13:56:30.489Z,11.87
2019-04-03T13:58:58.999Z,12.00
2019-04-03T14:01:28.441Z,12.05
2019-04-03T14:03:57.133Z,12.16
2019-04-03T14:06:25.647Z,12.27
2019-04-03T14:08:54.593Z,12.19
2019-04-03T14:11:23.514Z,12.17
2019-04-03T14:13:52.770Z,12.08
2019-04-03T14:16:22.804Z,11.95
2019-04-03T14:18:51.134Z,11.91
2019-04-03T14:21:19.123Z,12.05
2019-04-03T14:23:48.108Z,12.06
2019-04-03T14:26:17.178Z,12.19
2019-04-03T14:28:45.900Z,12.04
2019-04-03T14:31:16.869Z,12.06
2019-04-03T14:33:46.264Z,11.86
2019-04-03T14:36:12.574Z,12.05
2019-04-03T14:38:41.503Z,11.94
2019-04-03T14:41:10.740Z,12.11
2019-04-03T14:43:39.459Z,12.10
2019-04-03T14:46:08.529Z,12.17
2019-04-03T14:48:37.102Z,12.14
2019-04-03T14:51:07.265Z,12.39
2019-04-03T14:53:34.910Z,12.26
2019-04-03T14:56:03.842Z,12.07
2019-04-03T14:58:32.728Z,12.14
2019-04-03T15:01:01.644Z,12.09
2019-04-03T15:03:30.561Z,12.11
2019-04-03T15:05:59.477Z,12.17
2019-04-03T15:08:28.420Z,12.09
2019-04-03T15:10:57.297Z,12.10
2019-04-03T15:13:26.625Z,11.97
2019-04-03T15:15:55.127Z,12.03
2019-04-03T15:18:24.013Z,12.02
2019-04-03T15:20:53.275Z,12.05
2019-04-03T15:23:21.979Z,12.34
2019-04-03T15:25:52.852Z,12.11
2019-04-03T15:28:19.764Z,12.10
2019-04-03T15:30:48.515Z,12.11
2019-04-03T15:33:17.465Z,12.12
2019-04-03T15:35:46.400Z,12.13
2019-04-03T15:38:18.074Z,12.01
2019-04-03T15:40:44.265Z,11.87
2019-04-03T15:43:15.952Z,11.80
2019-04-03T15:45:42.124Z,11.73
2019-04-03T15:48:11.271Z,11.67
2019-04-03T15:50:40.027Z,11.54
2019-04-03T15:53:08.958Z,11.50
2019-04-03T15:55:39.014Z,11.51
2019-04-03T15:58:07.119Z,11.53
2019-04-03T16:00:36.565Z,11.49
2019-04-03T16:03:04.968Z,11.76
2019-04-03T16:05:36.331Z,11.63
2019-04-03T16:08:02.960Z,11.61
2019-04-03T16:10:31.719Z,11.43
2019-04-03T16:13:01.144Z,11.42
2019-04-03T16:15:29.840Z,11.77
2019-04-03T16:17:58.363Z,11.69
2019-04-03T16:20:27.638Z,11.60
2019-04-03T16:22:56.210Z,11.61
2019-04-03T16:25:25.511Z,11.57
2019-04-03T16:27:54.399Z,11.48
2019-04-03T16:30:22.815Z,11.44
2019-04-03T16:32:51.986Z,11.50
2019-04-03T16:35:20.624Z,11.41
2019-04-03T16:37:50.608Z,11.40
2019-04-03T16:40:18.416Z,11.37
2019-04-03T16:42:48.290Z,11.24
2019-04-03T16:45:16.228Z,11.27
2019-04-03T16:47:45.790Z,11.46
2019-04-03T16:50:14.054Z,11.27
2019-04-03T16:52:43.577Z,11.23
2019-04-03T16:55:11.943Z,11.20
2019-04-03T16:57:40.753Z,11.07
2019-04-03T17:00:10.311Z,10.99
2019-04-03T17:02:38.713Z,11.03
2019-04-03T17:05:10.424Z,11.00
2019-04-03T17:07:38.090Z,10.95
2019-04-03T17:10:05.785Z,10.92
2019-04-03T17:12:34.710Z,10.98
2019-04-03T17:15:03.685Z,10.94
2019-04-03T17:17:32.791Z,10.92
2019-04-03T17:20:01.503Z,10.91
2019-04-03T17:22:30.992Z,10.89
2019-04-03T17:24:59.414Z,10.87
2019-04-03T17:27:30.338Z,10.82
2019-04-03T17:29:57.292Z,10.80
2019-04-03T17:32:28.958Z,10.74
2019-04-03T17:34:55.025Z,10.76
2019-04-03T17:37:25.446Z,10.76
2019-04-03T17:39:52.870Z,10.77
2019-04-03T17:42:21.796Z,10.78
2019-04-03T17:44:50.682Z,10.73
2019-04-03T17:47:20.038Z,10.73
2019-04-03T17:49:48.472Z,10.68
2019-04-03T17:52:17.375Z,10.69
2019-04-03T17:54:46.266Z,10.68
2019-04-03T17:57:17.399Z,10.63
2019-04-03T17:59:44.123Z,10.59
2019-04-03T18:02:13.027Z,10.59
2019-04-03T18:04:41.947Z,10.64
2019-04-03T18:07:12.175Z,10.58
2019-04-03T18:09:41.952Z,10.51
2019-04-03T18:12:08.864Z,10.49
2019-04-03T18:14:37.944Z,10.47
2019-04-03T18:17:06.908Z,10.38
2019-04-03T18:19:37.606Z,10.35
2019-04-03T18:22:04.805Z,10.28
2019-04-03T18:24:33.692Z,10.24
2019-04-03T18:27:03.222Z,10.29
2019-04-03T18:29:31.523Z,10.25
2019-04-03T18:32:00.418Z,10.19
2019-04-03T18:34:29.330Z,10.12
2019-04-03T18:36:58.282Z,10.15
2019-04-03T18:39:27.241Z,10.14
2019-04-03T18:41:56.183Z,10.03
2019-04-03T18:44:26.958Z,10.36
2019-04-03T18:46:53.980Z,10.06
2019-04-03T18:49:22.856Z,10.40
2019-04-03T18:51:51.737Z,10.12
2019-04-03T18:54:20.652Z,10.04
2019-04-03T18:56:49.578Z,10.03
2019-04-03T18:59:18.574Z,10.08
2019-04-03T19:01:47.391Z,10.05
2019-04-03T19:04:16.280Z,10.00
2019-04-03T19:06:45.310Z,10.05
2019-04-03T19:09:14.088Z,9.99
2019-04-03T19:11:43.014Z,10.01
2019-04-03T19:14:11.969Z,10.00
2019-04-03T19:16:45.231Z,9.97
2019-04-03T19:19:09.856Z,9.93
2019-04-03T19:21:38.756Z,10.26
2019-04-03T19:24:07.718Z,10.09
2019-04-03T19:26:36.658Z,10.06
2019-04-03T19:29:05.683Z,9.99
2019-04-03T19:31:34.488Z,10.03
2019-04-03T19:34:03.468Z,9.93
2019-04-03T19:36:32.356Z,9.93
2019-04-03T19:39:01.258Z,9.95
2019-04-03T19:41:30.166Z,9.92
2019-04-03T19:44:00.694Z,9.88
2019-04-03T19:46:28.080Z,9.91
2019-04-03T19:48:57.406Z,9.86
2019-04-03T19:51:25.854Z,9.80
2019-04-03T19:53:59.589Z,9.79
2019-04-03T19:56:25.731Z,9.81
2019-04-03T19:58:52.603Z,10.20
2019-04-03T20:01:23.850Z,9.98
2019-04-03T20:03:50.412Z,10.00
2019-04-03T20:06:22.384Z,9.96
2019-04-03T20:08:48.221Z,9.98
2019-04-03T20:11:17.126Z,9.98
2019-04-03T20:13:46.069Z,10.00
2019-04-03T20:16:14.969Z,9.96
2019-04-03T20:18:43.883Z,10.02
2019-04-03T20:21:15.118Z,9.95
2019-04-03T20:23:42.466Z,9.90
2019-04-03T20:26:10.650Z,10.14
2019-04-03T20:28:39.529Z,9.86
2019-04-03T20:31:08.480Z,9.74
2019-04-03T20:33:37.378Z,9.71
2019-04-03T20:36:06.346Z,9.60
2019-04-03T20:38:35.239Z,9.85
2019-04-03T20:41:04.142Z,9.60
2019-04-03T20:43:33.028Z,9.50
2019-04-03T20:46:01.929Z,9.42
2019-04-03T20:48:30.824Z,9.32
2019-04-03T20:50:59.759Z,9.27
2019-04-03T20:53:28.620Z,9.25
2019-04-03T20:55:58.091Z,9.22
2019-04-03T20:58:26.414Z,9.15
2019-04-03T21:01:05.917Z,9.06
2019-04-03T21:03:24.197Z,9.09
2019-04-03T21:05:53.259Z,9.00
2019-04-03T21:08:22.152Z,8.93
2019-04-03T21:10:51.034Z,8.91
2019-04-03T21:13:19.942Z,8.89
2019-04-03T21:15:52.285Z,8.83
2019-04-03T21:18:21.208Z,8.84
2019-04-03T21:20:50.939Z,8.82
2019-04-03T21:23:21.150Z,9.20
2019-04-03T21:25:51.720Z,8.97
2019-04-03T21:28:20.537Z,8.93
2019-04-03T21:30:49.441Z,9.00
2019-04-03T21:33:18.353Z,9.30
2019-04-03T21:35:47.239Z,9.37
2019-04-03T21:38:16.110Z,8.96
2019-04-03T21:40:46.822Z,8.95
2019-04-03T21:43:13.915Z,8.97
2019-04-03T21:45:42.825Z,8.93
2019-04-03T21:48:13.556Z,8.88
2019-04-03T21:50:40.599Z,8.84
2019-04-03T21:53:09.485Z,8.75
2019-04-03T21:55:38.403Z,8.68
2019-04-03T21:58:08.925Z,8.66
2019-04-03T22:01:16.988Z,8.65
2019-04-03T22:03:45.962Z,8.62
2019-04-03T22:06:14.838Z,8.61
2019-04-03T22:08:43.783Z,8.94
2019-04-03T22:11:12.666Z,8.67
2019-04-03T22:13:41.568Z,8.65
2019-04-03T22:16:10.526Z,8.61
2019-04-03T22:18:39.406Z,8.57
2019-04-03T22:21:08.300Z,8.61
2019-04-03T22:23:37.203Z,8.61
2019-04-03T22:26:06.106Z,8.49
2019-04-03T22:28:35.017Z,8.49
2019-04-03T22:31:03.963Z,8.47
2019-04-03T22:33:32.955Z,8.51
2019-04-03T22:36:03.411Z,8.46
2019-04-03T22:38:30.699Z,8.39
2019-04-03T22:40:59.583Z,8.36
2019-04-03T22:43:28.551Z,8.34
2019-04-03T22:45:57.410Z,8.29
2019-04-03T22:48:27.431Z,8.27
2019-04-03T22:50:55.169Z,8.20
2019-04-03T22:53:24.098Z,8.30
2019-04-03T22:55:53.013Z,8.34
2019-04-03T22:58:21.909Z,8.73
2019-04-03T23:00:50.806Z,8.46
2019-04-03T23:03:19.725Z,8.39
2019-04-03T23:05:48.664Z,8.26
2019-04-03T23:08:17.500Z,8.24
2019-04-03T23:10:46.435Z,8.25
2019-04-03T23:13:15.343Z,8.11
2019-04-03T23:15:44.252Z,8.09
2019-04-03T23:18:13.999Z,8.44
2019-04-03T23:20:42.388Z,8.23
2019-04-03T23:23:11.272Z,8.17
2019-04-03T23:25:40.191Z,8.09
2019-04-03T23:28:09.048Z,7.97
2019-04-03T23:30:39.118Z,8.00
2019-04-03T23:33:06.912Z,7.91
2019-04-03T23:35:35.881Z,7.87
2019-04-03T23:38:04.886Z,7.87
2019-04-03T23:40:34.625Z,7.89
2019-04-03T23:43:02.740Z,7.95
2019-04-03T23:45:32.003Z,7.91
2019-04-03T23:48:01.002Z,7.88
2019-04-03T23:50:29.899Z,7.81
2019-04-03T23:53:00.723Z,7.81
2019-04-03T23:55:27.718Z,7.70
2019-04-03T23:57:56.653Z,7.60
